sensor_id;sensor_type;location;lat;lon;timestamp;P1;durP1;ratioP1;P2;durP2;ratioP2
12842;SDS011;35724;49.324;-123.118;2024-02-14T00:03:09;3.08;;;1.30;;
12842;SDS011;35724;49.324;-123.118;2024-02-14T00:13:18;5.15;;;1.98;;
12842;SDS011;35724;49.324;-123.118;2024-02-14T00:23:25;3.10;;;1.40;;
12842;SDS011;35724;49.324;-123.118;2024-02-14T00:33:34;4.03;;;1.30;;
12842;SDS011;35724;49.324;-123.118;2024-02-14T00:43:41;3.22;;;1.70;;
12842;SDS011;35724;49.324;-123.118;2024-02-14T00:53:51;2.25;;;1.10;;
12842;SDS011;35724;49.324;-123.118;2024-02-14T01:03:58;6.53;;;1.48;;
12842;SDS011;35724;49.324;-123.118;2024-02-14T01:14:08;2.22;;;1.10;;
12842;SDS011;35724;49.324;-123.118;2024-02-14T01:24:17;2.47;;;1.20;;
12842;SDS011;35724;49.324;-123.118;2024-02-14T01:34:27;1.90;;;1.20;;
12842;SDS011;35724;49.324;-123.118;2024-02-14T01:44:35;3.00;;;1.30;;
12842;SDS011;35724;49.324;-123.118;2024-02-14T01:54:44;1.40;;;1.10;;
12842;SDS011;35724;49.324;-123.118;2024-02-14T02:04:52;1.73;;;1.20;;
12842;SDS011;35724;49.324;-123.118;2024-02-14T02:15:01;1.10;;;1.00;;
12842;SDS011;35724;49.324;-123.118;2024-02-14T02:25:31;2.58;;;1.48;;
12842;SDS011;35724;49.324;-123.118;2024-02-14T02:35:50;3.05;;;2.70;;
12842;SDS011;35724;49.324;-123.118;2024-02-14T02:46:19;1.17;;;0.90;;
12842;SDS011;35724;49.324;-123.118;2024-02-14T02:56:49;1.13;;;1.00;;
12842;SDS011;35724;49.324;-123.118;2024-02-14T03:06:59;0.82;;;0.80;;
12842;SDS011;35724;49.324;-123.118;2024-02-14T03:17:31;1.05;;;0.95;;
12842;SDS011;35724;49.324;-123.118;2024-02-14T03:27:41;0.60;;;0.60;;
12842;SDS011;35724;49.324;-123.118;2024-02-14T03:37:50;0.80;;;0.80;;
12842;SDS011;35724;49.324;-123.118;2024-02-14T03:47:59;1.73;;;0.90;;
12842;SDS011;35724;49.324;-123.118;2024-02-14T03:58:08;1.20;;;0.93;;
12842;SDS011;35724;49.324;-123.118;2024-02-14T04:08:17;1.83;;;0.95;;
12842;SDS011;35724;49.324;-123.118;2024-02-14T04:18:24;1.63;;;1.10;;
12842;SDS011;35724;49.324;-123.118;2024-02-14T04:28:33;1.30;;;1.05;;
12842;SDS011;35724;49.324;-123.118;2024-02-14T04:38:40;0.85;;;0.85;;
12842;SDS011;35724;49.324;-123.118;2024-02-14T04:48:49;0.80;;;0.80;;
12842;SDS011;35724;49.324;-123.118;2024-02-14T04:58:58;0.70;;;0.70;;
12842;SDS011;35724;49.324;-123.118;2024-02-14T05:09:07;2.08;;;0.90;;
12842;SDS011;35724;49.324;-123.118;2024-02-14T05:19:15;0.95;;;0.85;;
12842;SDS011;35724;49.324;-123.118;2024-02-14T05:29:26;2.65;;;0.90;;
12842;SDS011;35724;49.324;-123.118;2024-02-14T05:39:38;0.60;;;0.60;;
12842;SDS011;35724;49.324;-123.118;2024-02-14T05:49:47;0.88;;;0.88;;
12842;SDS011;35724;49.324;-123.118;2024-02-14T05:59:55;2.30;;;1.03;;
12842;SDS011;35724;49.324;-123.118;2024-02-14T06:10:04;1.02;;;0.75;;
12842;SDS011;35724;49.324;-123.118;2024-02-14T06:20:12;0.80;;;0.80;;
12842;SDS011;35724;49.324;-123.118;2024-02-14T06:30:21;0.73;;;0.70;;
12842;SDS011;35724;49.324;-123.118;2024-02-14T06:40:33;0.80;;;0.80;;
12842;SDS011;35724;49.324;-123.118;2024-02-14T06:50:42;0.87;;;0.80;;
12842;SDS011;35724;49.324;-123.118;2024-02-14T07:00:50;2.90;;;0.83;;
12842;SDS011;35724;49.324;-123.118;2024-02-14T07:10:59;1.90;;;1.20;;
12842;SDS011;35724;49.324;-123.118;2024-02-14T07:21:06;1.37;;;1.20;;
12842;SDS011;35724;49.324;-123.118;2024-02-14T07:31:15;1.90;;;1.37;;
12842;SDS011;35724;49.324;-123.118;2024-02-14T07:41:22;1.37;;;1.13;;
12842;SDS011;35724;49.324;-123.118;2024-02-14T07:51:33;2.50;;;1.10;;
12842;SDS011;35724;49.324;-123.118;2024-02-14T08:01:42;1.50;;;1.30;;
12842;SDS011;35724;49.324;-123.118;2024-02-14T08:11:51;1.27;;;1.00;;
12842;SDS011;35724;49.324;-123.118;2024-02-14T08:21:58;1.00;;;0.90;;
12842;SDS011;35724;49.324;-123.118;2024-02-14T08:32:08;0.90;;;0.90;;
12842;SDS011;35724;49.324;-123.118;2024-02-14T08:42:15;0.80;;;0.80;;
12842;SDS011;35724;49.324;-123.118;2024-02-14T08:52:24;0.77;;;0.77;;
12842;SDS011;35724;49.324;-123.118;2024-02-14T09:02:33;0.63;;;0.60;;
12842;SDS011;35724;49.324;-123.118;2024-02-14T09:12:42;0.67;;;0.67;;
12842;SDS011;35724;49.324;-123.118;2024-02-14T09:22:49;1.00;;;0.60;;
12842;SDS011;35724;49.324;-123.118;2024-02-14T09:33:00;0.60;;;0.60;;
12842;SDS011;35724;49.324;-123.118;2024-02-14T09:43:11;0.70;;;0.70;;
12842;SDS011;35724;49.324;-123.118;2024-02-14T09:53:32;0.70;;;0.70;;
12842;SDS011;35724;49.324;-123.118;2024-02-14T10:03:40;1.63;;;1.00;;
12842;SDS011;35724;49.324;-123.118;2024-02-14T10:13:49;1.57;;;0.73;;
12842;SDS011;35724;49.324;-123.118;2024-02-14T10:23:59;1.20;;;1.10;;
12842;SDS011;35724;49.324;-123.118;2024-02-14T10:34:08;1.67;;;0.90;;
12842;SDS011;35724;49.324;-123.118;2024-02-14T10:44:16;0.90;;;0.90;;
12842;SDS011;35724;49.324;-123.118;2024-02-14T10:54:25;0.97;;;0.77;;
12842;SDS011;35724;49.324;-123.118;2024-02-14T11:04:33;0.63;;;0.60;;
12842;SDS011;35724;49.324;-123.118;2024-02-14T11:14:43;0.60;;;0.60;;
12842;SDS011;35724;49.324;-123.118;2024-02-14T11:24:50;0.70;;;0.70;;
12842;SDS011;35724;49.324;-123.118;2024-02-14T11:34:59;0.90;;;0.70;;
12842;SDS011;35724;49.324;-123.118;2024-02-14T11:45:09;1.00;;;1.00;;
12842;SDS011;35724;49.324;-123.118;2024-02-14T11:55:19;0.80;;;0.77;;
12842;SDS011;35724;49.324;-123.118;2024-02-14T12:05:37;0.60;;;0.60;;
12842;SDS011;35724;49.324;-123.118;2024-02-14T12:15:49;0.80;;;0.63;;
12842;SDS011;35724;49.324;-123.118;2024-02-14T12:26:00;0.83;;;0.83;;
12842;SDS011;35724;49.324;-123.118;2024-02-14T12:36:10;0.93;;;0.70;;
12842;SDS011;35724;49.324;-123.118;2024-02-14T12:46:17;0.70;;;0.70;;
12842;SDS011;35724;49.324;-123.118;2024-02-14T12:56:29;1.87;;;0.90;;
12842;SDS011;35724;49.324;-123.118;2024-02-14T13:06:38;0.90;;;0.70;;
12842;SDS011;35724;49.324;-123.118;2024-02-14T13:16:47;1.10;;;0.70;;
12842;SDS011;35724;49.324;-123.118;2024-02-14T13:26:54;0.97;;;0.70;;
12842;SDS011;35724;49.324;-123.118;2024-02-14T13:37:05;2.73;;;0.93;;
12842;SDS011;35724;49.324;-123.118;2024-02-14T13:47:13;2.60;;;0.77;;
12842;SDS011;35724;49.324;-123.118;2024-02-14T13:57:26;2.83;;;0.80;;
12842;SDS011;35724;49.324;-123.118;2024-02-14T14:07:34;1.00;;;0.70;;
12842;SDS011;35724;49.324;-123.118;2024-02-14T14:18:01;0.73;;;0.70;;
12842;SDS011;35724;49.324;-123.118;2024-02-14T14:28:08;2.60;;;0.80;;
12842;SDS011;35724;49.324;-123.118;2024-02-14T14:38:17;2.70;;;1.00;;
12842;SDS011;35724;49.324;-123.118;2024-02-14T14:48:25;0.70;;;0.70;;
12842;SDS011;35724;49.324;-123.118;2024-02-14T14:58:34;1.77;;;0.90;;
12842;SDS011;35724;49.324;-123.118;2024-02-14T15:08:43;0.80;;;0.70;;
12842;SDS011;35724;49.324;-123.118;2024-02-14T15:18:53;1.30;;;1.17;;
12842;SDS011;35724;49.324;-123.118;2024-02-14T15:29:00;3.23;;;1.10;;
12842;SDS011;35724;49.324;-123.118;2024-02-14T15:39:22;2.47;;;1.10;;
12842;SDS011;35724;49.324;-123.118;2024-02-14T15:49:29;2.37;;;1.23;;
12842;SDS011;35724;49.324;-123.118;2024-02-14T15:59:40;1.97;;;1.20;;
12842;SDS011;35724;49.324;-123.118;2024-02-14T16:09:48;3.00;;;1.30;;
12842;SDS011;35724;49.324;-123.118;2024-02-14T16:19:57;12.47;;;1.77;;
12842;SDS011;35724;49.324;-123.118;2024-02-14T16:30:05;1.60;;;1.30;;
12842;SDS011;35724;49.324;-123.118;2024-02-14T16:40:15;5.13;;;1.30;;
12842;SDS011;35724;49.324;-123.118;2024-02-14T16:50:23;2.30;;;1.50;;
12842;SDS011;35724;49.324;-123.118;2024-02-14T17:00:34;5.83;;;1.50;;
12842;SDS011;35724;49.324;-123.118;2024-02-14T17:10:42;3.67;;;1.23;;
12842;SDS011;35724;49.324;-123.118;2024-02-14T17:20:51;3.60;;;1.50;;
12842;SDS011;35724;49.324;-123.118;2024-02-14T17:30:58;4.20;;;1.50;;
12842;SDS011;35724;49.324;-123.118;2024-02-14T17:41:07;6.37;;;1.93;;
12842;SDS011;35724;49.324;-123.118;2024-02-14T17:51:14;9.60;;;1.90;;
12842;SDS011;35724;49.324;-123.118;2024-02-14T18:01:24;5.47;;;1.87;;
12842;SDS011;35724;49.324;-123.118;2024-02-14T18:11:32;7.63;;;2.10;;
12842;SDS011;35724;49.324;-123.118;2024-02-14T18:21:41;3.80;;;1.80;;
12842;SDS011;35724;49.324;-123.118;2024-02-14T18:31:48;3.53;;;1.95;;
12842;SDS011;35724;49.324;-123.118;2024-02-14T18:41:57;3.30;;;1.30;;
12842;SDS011;35724;49.324;-123.118;2024-02-14T18:52:04;3.03;;;1.23;;
12842;SDS011;35724;49.324;-123.118;2024-02-14T19:02:13;1.67;;;1.10;;
12842;SDS011;35724;49.324;-123.118;2024-02-14T19:12:21;1.60;;;0.90;;
12842;SDS011;35724;49.324;-123.118;2024-02-14T19:22:29;3.42;;;1.20;;
12842;SDS011;35724;49.324;-123.118;2024-02-14T19:32:37;3.00;;;1.30;;
12842;SDS011;35724;49.324;-123.118;2024-02-14T19:42:46;3.58;;;1.10;;
12842;SDS011;35724;49.324;-123.118;2024-02-14T19:52:53;2.42;;;0.85;;
12842;SDS011;35724;49.324;-123.118;2024-02-14T20:03:01;5.50;;;1.50;;
12842;SDS011;35724;49.324;-123.118;2024-02-14T20:13:10;3.72;;;1.27;;
12842;SDS011;35724;49.324;-123.118;2024-02-14T20:23:19;3.13;;;1.30;;
12842;SDS011;35724;49.324;-123.118;2024-02-14T20:33:26;2.15;;;1.20;;
12842;SDS011;35724;49.324;-123.118;2024-02-14T20:43:35;2.67;;;1.30;;
12842;SDS011;35724;49.324;-123.118;2024-02-14T20:53:42;2.15;;;1.20;;
12842;SDS011;35724;49.324;-123.118;2024-02-14T21:03:51;2.88;;;1.15;;
12842;SDS011;35724;49.324;-123.118;2024-02-14T21:14:01;3.17;;;1.42;;
12842;SDS011;35724;49.324;-123.118;2024-02-14T21:24:11;4.20;;;2.00;;
12842;SDS011;35724;49.324;-123.118;2024-02-14T21:34:18;2.42;;;1.40;;
12842;SDS011;35724;49.324;-123.118;2024-02-14T21:44:27;2.85;;;1.30;;
12842;SDS011;35724;49.324;-123.118;2024-02-14T21:54:35;1.77;;;1.50;;
12842;SDS011;35724;49.324;-123.118;2024-02-14T22:04:44;3.90;;;1.90;;
12842;SDS011;35724;49.324;-123.118;2024-02-14T22:14:52;4.32;;;1.67;;
12842;SDS011;35724;49.324;-123.118;2024-02-14T22:25:01;1.30;;;1.20;;
12842;SDS011;35724;49.324;-123.118;2024-02-14T22:35:10;2.67;;;1.60;;
12842;SDS011;35724;49.324;-123.118;2024-02-14T22:45:19;5.85;;;1.77;;
12842;SDS011;35724;49.324;-123.118;2024-02-14T22:55:27;3.72;;;1.30;;
12842;SDS011;35724;49.324;-123.118;2024-02-14T23:05:36;1.45;;;1.20;;
12842;SDS011;35724;49.324;-123.118;2024-02-14T23:15:44;3.03;;;1.30;;
12842;SDS011;35724;49.324;-123.118;2024-02-14T23:25:57;2.08;;;1.30;;
12842;SDS011;35724;49.324;-123.118;2024-02-14T23:36:04;3.03;;;1.25;;
12842;SDS011;35724;49.324;-123.118;2024-02-14T23:46:13;4.10;;;1.70;;
12842;SDS011;35724;49.324;-123.118;2024-02-14T23:56:21;4.28;;;1.40;;
